createdAt,value
2018-06-21T00:01:18.734Z,11.47
2018-06-21T00:03:47.484Z,11.40
2018-06-21T00:06:16.308Z,10.67
2018-06-21T00:08:45.117Z,10.20
2018-06-21T00:11:13.833Z,11.33
2018-06-21T00:13:42.575Z,11.50
2018-06-21T00:16:11.321Z,10.13
2018-06-21T00:18:40.125Z,9.10
2018-06-21T00:21:09.675Z,9.30
2018-06-21T00:23:38.370Z,10.20
2018-06-21T00:26:07.174Z,10.80
2018-06-21T00:28:35.909Z,10.43
2018-06-21T00:31:04.698Z,10.80
2018-06-21T00:33:33.450Z,10.90
2018-06-21T00:36:02.234Z,10.97
2018-06-21T00:38:30.972Z,10.70
2018-06-21T00:40:59.752Z,10.90
2018-06-21T00:43:28.499Z,10.80
2018-06-21T00:45:57.321Z,10.73
2018-06-21T00:48:26.107Z,11.03
2018-06-21T00:50:54.866Z,11.30
2018-06-21T00:53:23.609Z,10.47
2018-06-21T00:56:03.475Z,11.10
2018-06-21T00:58:32.877Z,10.40
2018-06-21T01:01:01.623Z,11.23
2018-06-21T01:03:30.444Z,11.23
2018-06-21T01:05:59.233Z,11.40
2018-06-21T01:08:27.968Z,10.93
2018-06-21T01:10:56.756Z,11.57
2018-06-21T01:13:25.498Z,11.63
2018-06-21T01:15:54.250Z,11.40
2018-06-21T01:18:23.006Z,12.30
2018-06-21T01:20:51.788Z,11.40
2018-06-21T01:23:20.511Z,11.90
2018-06-21T01:25:49.322Z,15.60
2018-06-21T01:28:18.063Z,14.20
2018-06-21T01:30:46.884Z,15.10
2018-06-21T01:33:15.633Z,13.00
2018-06-21T01:35:44.419Z,12.57
2018-06-21T01:38:13.192Z,13.00
2018-06-21T01:40:41.998Z,13.43
2018-06-21T01:43:10.742Z,12.90
2018-06-21T01:45:39.527Z,13.40
2018-06-21T01:48:08.515Z,11.23
2018-06-21T01:50:37.259Z,10.73
2018-06-21T01:53:06.451Z,10.47
2018-06-21T01:55:35.211Z,11.50
2018-06-21T01:58:04.035Z,10.73
2018-06-21T02:00:32.827Z,11.00
2018-06-21T02:03:01.826Z,14.10
2018-06-21T02:05:30.573Z,14.40
2018-06-21T02:07:59.381Z,13.93
2018-06-21T02:10:28.274Z,14.73
2018-06-21T02:12:57.009Z,11.87
2018-06-21T02:15:25.840Z,11.77
2018-06-21T02:17:55.471Z,11.63
2018-06-21T02:20:24.216Z,11.90
2018-06-21T02:22:52.978Z,11.63
2018-06-21T02:25:21.753Z,11.53
2018-06-21T02:27:50.526Z,11.53
2018-06-21T02:30:19.330Z,11.90
2018-06-21T02:32:48.067Z,11.87
2018-06-21T02:35:16.815Z,11.93
2018-06-21T02:37:45.654Z,13.10
2018-06-21T02:40:14.420Z,12.20
2018-06-21T02:42:43.155Z,12.00
2018-06-21T02:45:11.927Z,12.37
2018-06-21T02:47:40.720Z,11.30
2018-06-21T02:50:09.449Z,11.97
2018-06-21T02:52:38.197Z,12.03
2018-06-21T02:55:07.374Z,12.37
2018-06-21T02:57:36.142Z,11.73
2018-06-21T03:00:08.102Z,11.73
2018-06-21T03:02:36.888Z,11.97
2018-06-21T03:05:05.750Z,12.00
2018-06-21T03:07:34.572Z,11.97
2018-06-21T03:10:04.087Z,11.80
2018-06-21T03:12:32.884Z,12.00
2018-06-21T03:15:01.604Z,11.80
2018-06-21T03:17:30.332Z,11.17
2018-06-21T03:19:59.058Z,11.00
2018-06-21T03:22:27.798Z,11.03
2018-06-21T03:24:56.579Z,12.27
2018-06-21T03:27:25.934Z,12.37
2018-06-21T03:29:54.712Z,12.73
2018-06-21T03:32:23.484Z,12.07
2018-06-21T03:34:52.194Z,12.80
2018-06-21T03:37:20.977Z,12.27
2018-06-21T03:39:49.707Z,11.70
2018-06-21T03:42:18.431Z,14.30
2018-06-21T03:44:47.156Z,15.00
2018-06-21T03:47:15.938Z,13.90
2018-06-21T03:49:44.705Z,13.20
2018-06-21T03:52:13.539Z,13.57
2018-06-21T03:54:42.477Z,14.47
2018-06-21T03:57:11.231Z,14.97
2018-06-21T03:59:39.971Z,14.37
2018-06-21T04:02:08.743Z,14.63
2018-06-21T04:04:37.478Z,14.80
2018-06-21T04:07:06.311Z,14.53
2018-06-21T04:09:35.097Z,14.47
2018-06-21T04:12:03.869Z,14.17
2018-06-21T04:14:32.673Z,13.67
2018-06-21T04:17:01.427Z,16.20
2018-06-21T04:19:30.319Z,15.03
2018-06-21T04:21:59.105Z,16.17
2018-06-21T04:24:28.171Z,15.00
2018-06-21T04:26:56.956Z,16.83
2018-06-21T04:29:25.758Z,16.00
2018-06-21T04:31:54.712Z,15.47
2018-06-21T04:34:23.502Z,15.87
2018-06-21T04:36:52.249Z,16.30
2018-06-21T04:39:20.982Z,16.67
2018-06-21T04:41:49.763Z,16.47
2018-06-21T04:44:18.511Z,16.57
2018-06-21T04:46:47.312Z,17.13
2018-06-21T04:49:16.158Z,18.67
2018-06-21T04:51:44.951Z,19.40
2018-06-21T04:54:13.718Z,19.67
2018-06-21T04:56:42.442Z,18.00
2018-06-21T04:59:11.191Z,19.43
2018-06-21T05:01:39.929Z,19.33
2018-06-21T05:04:08.680Z,18.40
2018-06-21T05:06:37.505Z,17.60
2018-06-21T05:09:10.531Z,18.83
2018-06-21T05:11:39.263Z,16.73
2018-06-21T05:14:08.439Z,17.30
2018-06-21T05:16:37.192Z,17.53
2018-06-21T05:19:05.956Z,17.37
2018-06-21T05:21:34.848Z,18.53
2018-06-21T05:24:03.567Z,18.60
2018-06-21T05:26:32.319Z,18.77
2018-06-21T05:29:01.519Z,17.70
2018-06-21T05:31:30.510Z,17.40
2018-06-21T05:33:59.351Z,17.60
2018-06-21T05:36:28.119Z,17.40
2018-06-21T05:38:56.911Z,16.97
2018-06-21T05:41:25.754Z,17.63
2018-06-21T05:43:54.511Z,17.27
2018-06-21T05:46:23.285Z,17.63
2018-06-21T05:48:52.135Z,16.57
2018-06-21T05:51:21.116Z,17.43
2018-06-21T05:53:49.878Z,17.90
2018-06-21T05:56:19.174Z,17.07
2018-06-21T05:58:47.941Z,18.20
2018-06-21T06:01:16.783Z,17.80
2018-06-21T06:03:46.943Z,19.00
2018-06-21T06:06:15.791Z,18.20
2018-06-21T06:08:44.534Z,20.43
2018-06-21T06:11:13.331Z,20.27
2018-06-21T06:13:42.185Z,18.67
2018-06-21T06:16:10.947Z,19.50
2018-06-21T06:18:39.765Z,19.00
2018-06-21T06:21:08.531Z,21.00
2018-06-21T06:23:37.279Z,21.30
2018-06-21T06:26:06.043Z,21.20
2018-06-21T06:28:35.152Z,22.20
2018-06-21T06:31:04.147Z,21.00
2018-06-21T06:33:32.928Z,21.07
2018-06-21T06:36:01.675Z,20.90
2018-06-21T06:38:30.455Z,20.87
2018-06-21T06:40:59.196Z,20.53
2018-06-21T06:43:28.262Z,22.30
2018-06-21T06:45:57.055Z,21.57
2018-06-21T06:48:26.532Z,21.07
2018-06-21T06:50:55.971Z,21.30
2018-06-21T06:53:24.760Z,20.93
2018-06-21T06:55:53.708Z,21.63
2018-06-21T06:58:22.429Z,21.17
2018-06-21T07:00:51.258Z,21.27
2018-06-21T07:03:20.078Z,21.10
2018-06-21T07:05:48.854Z,18.83
2018-06-21T07:08:19.578Z,17.87
2018-06-21T07:10:48.499Z,13.83
2018-06-21T07:13:17.250Z,15.23
2018-06-21T07:15:46.085Z,15.10
2018-06-21T07:18:14.860Z,15.17
2018-06-21T07:20:43.715Z,14.40
2018-06-21T07:23:12.478Z,16.07
2018-06-21T07:25:41.296Z,16.20
2018-06-21T07:28:10.007Z,16.07
2018-06-21T07:30:38.823Z,16.33
2018-06-21T07:33:07.559Z,16.10
2018-06-21T07:35:36.470Z,14.50
2018-06-21T07:38:05.387Z,14.30
2018-06-21T07:40:34.128Z,13.27
2018-06-21T07:43:02.905Z,13.73
2018-06-21T07:45:31.703Z,14.80
2018-06-21T07:48:00.543Z,13.07
2018-06-21T07:50:29.512Z,12.63
2018-06-21T07:52:58.319Z,10.63
2018-06-21T07:55:27.160Z,10.27
2018-06-21T07:57:55.944Z,10.93
2018-06-21T08:00:31.447Z,8.10
2018-06-21T08:03:00.246Z,8.33
2018-06-21T08:05:29.000Z,9.00
2018-06-21T08:07:57.749Z,9.07
2018-06-21T08:10:26.510Z,9.33
2018-06-21T08:12:55.318Z,8.70
2018-06-21T08:15:24.286Z,8.90
2018-06-21T08:17:53.047Z,9.33
2018-06-21T08:20:21.932Z,9.43
2018-06-21T08:22:50.922Z,9.90
2018-06-21T08:25:19.737Z,9.83
2018-06-21T08:27:55.109Z,11.10
2018-06-21T08:30:23.949Z,14.03
2018-06-21T08:32:52.713Z,10.43
2018-06-21T08:35:21.464Z,9.10
2018-06-21T08:37:50.235Z,9.77
2018-06-21T08:40:19.111Z,7.83
2018-06-21T08:42:52.550Z,8.10
2018-06-21T08:45:21.312Z,8.87
2018-06-21T08:47:50.083Z,8.60
2018-06-21T08:50:18.878Z,8.50
2018-06-21T08:52:47.716Z,10.40
2018-06-21T08:55:16.511Z,10.10
2018-06-21T08:57:45.281Z,7.90
2018-06-21T09:00:14.400Z,8.17
2018-06-21T09:02:43.130Z,5.87
2018-06-21T09:05:11.899Z,6.30
2018-06-21T09:07:40.654Z,6.87
2018-06-21T09:10:09.722Z,7.00
2018-06-21T09:12:39.214Z,7.10
2018-06-21T09:15:09.743Z,6.20
2018-06-21T09:17:38.506Z,6.10
2018-06-21T09:20:07.267Z,6.70
2018-06-21T09:22:36.065Z,6.50
2018-06-21T09:25:04.859Z,6.57
2018-06-21T09:27:33.654Z,6.83
2018-06-21T09:30:03.907Z,6.43
2018-06-21T09:32:39.402Z,6.80
2018-06-21T09:35:08.161Z,7.00
2018-06-21T09:37:42.047Z,7.50
2018-06-21T09:40:16.134Z,6.50
2018-06-21T09:42:50.027Z,6.43
2018-06-21T09:45:23.871Z,6.70
2018-06-21T09:47:57.793Z,7.07
2018-06-21T09:50:26.614Z,6.70
2018-06-21T09:52:55.380Z,6.80
2018-06-21T09:55:24.125Z,8.77
2018-06-21T09:57:53.740Z,7.00
2018-06-21T10:00:27.804Z,7.50
2018-06-21T10:02:56.569Z,7.30
2018-06-21T10:05:25.372Z,6.67
2018-06-21T10:07:54.180Z,6.33
2018-06-21T10:10:22.975Z,7.47
2018-06-21T10:12:51.752Z,6.63
2018-06-21T10:15:20.529Z,6.73
2018-06-21T10:17:49.332Z,6.70
2018-06-21T10:20:18.074Z,7.47
2018-06-21T10:22:46.839Z,6.53
2018-06-21T10:25:22.358Z,7.20
2018-06-21T10:27:51.105Z,7.93
2018-06-21T10:30:19.919Z,7.37
2018-06-21T10:32:48.692Z,7.20
2018-06-21T10:35:17.469Z,7.30
2018-06-21T10:37:46.192Z,7.20
2018-06-21T10:40:15.070Z,6.80
2018-06-21T10:42:43.784Z,7.33
2018-06-21T10:45:12.507Z,7.00
2018-06-21T10:47:41.231Z,5.90
2018-06-21T10:50:10.007Z,6.40
2018-06-21T10:52:38.790Z,6.33
2018-06-21T10:55:07.542Z,7.53
2018-06-21T10:57:36.813Z,6.53
2018-06-21T11:00:06.589Z,6.83
2018-06-21T11:02:35.365Z,6.97
2018-06-21T11:05:04.683Z,6.80
2018-06-21T11:07:33.420Z,6.80
2018-06-21T11:10:02.300Z,7.33
2018-06-21T11:12:31.092Z,10.67
2018-06-21T11:14:59.867Z,12.07
2018-06-21T11:17:28.623Z,10.00
2018-06-21T11:19:57.386Z,10.10
2018-06-21T11:22:26.200Z,10.40
2018-06-21T11:24:55.770Z,9.27
2018-06-21T11:27:24.556Z,9.40
2018-06-21T11:29:53.437Z,9.63
2018-06-21T11:32:22.202Z,9.03
2018-06-21T11:34:51.042Z,9.37
2018-06-21T11:37:26.365Z,8.63
2018-06-21T11:39:55.179Z,9.13
2018-06-21T11:42:23.978Z,9.77
2018-06-21T11:44:52.765Z,9.33
2018-06-21T11:47:21.550Z,8.50
2018-06-21T11:49:50.320Z,9.87
2018-06-21T11:52:19.103Z,9.57
2018-06-21T11:54:47.851Z,8.90
2018-06-21T11:57:16.610Z,8.73
2018-06-21T11:59:45.398Z,9.00
2018-06-21T12:02:14.222Z,8.40
2018-06-21T12:04:43.739Z,9.67
2018-06-21T12:07:12.762Z,11.63
2018-06-21T12:09:41.528Z,9.97
2018-06-21T12:12:10.350Z,9.50
2018-06-21T12:14:39.650Z,11.17
2018-06-21T12:17:09.209Z,9.40
2018-06-21T12:19:37.931Z,9.47
2018-06-21T12:22:06.839Z,8.77
2018-06-21T12:24:35.652Z,9.03
2018-06-21T12:27:05.115Z,9.30
2018-06-21T12:29:34.880Z,7.90
2018-06-21T12:32:03.625Z,8.57
2018-06-21T12:34:32.511Z,8.03
2018-06-21T12:37:01.256Z,8.17
2018-06-21T12:39:30.035Z,7.13
2018-06-21T12:41:58.811Z,7.23
2018-06-21T12:44:27.507Z,7.37
2018-06-21T12:46:56.202Z,8.20
2018-06-21T12:49:25.006Z,34.30
2018-06-21T12:51:53.773Z,21.57
2018-06-21T12:54:22.548Z,8.57
2018-06-21T12:56:51.288Z,7.27
2018-06-21T12:59:20.748Z,7.70
2018-06-21T13:01:49.547Z,11.27
2018-06-21T13:04:18.320Z,7.50
2018-06-21T13:06:47.062Z,6.83
2018-06-21T13:09:27.735Z,8.43
2018-06-21T13:12:35.834Z,8.83
2018-06-21T13:15:05.697Z,7.53
2018-06-21T13:17:34.480Z,7.17
2018-06-21T13:20:04.275Z,7.70
2018-06-21T13:22:33.040Z,7.27
2018-06-21T13:25:02.191Z,8.07
2018-06-21T13:27:30.852Z,7.77
2018-06-21T13:29:59.569Z,7.90
2018-06-21T13:32:28.253Z,8.23
2018-06-21T13:34:56.970Z,9.80
2018-06-21T13:37:27.076Z,8.87
2018-06-21T13:39:56.201Z,9.30
2018-06-21T13:42:24.917Z,8.87
2018-06-21T13:44:53.684Z,8.97
2018-06-21T13:47:22.450Z,10.90
2018-06-21T13:49:51.242Z,9.37
2018-06-21T13:52:20.025Z,8.93
2018-06-21T13:54:48.890Z,8.17
2018-06-21T13:57:17.768Z,9.20
2018-06-21T13:59:46.781Z,9.80
2018-06-21T14:02:15.697Z,8.87
2018-06-21T14:04:45.248Z,8.40
2018-06-21T14:07:13.966Z,11.77
2018-06-21T14:09:42.694Z,9.60
2018-06-21T14:12:11.796Z,7.93
2018-06-21T14:14:40.593Z,8.00
2018-06-21T14:17:09.470Z,8.63
2018-06-21T14:19:38.185Z,7.23
2018-06-21T14:22:07.019Z,6.80
2018-06-21T14:24:35.858Z,8.73
2018-06-21T14:27:04.664Z,7.90
2018-06-21T14:29:33.457Z,8.07
2018-06-21T14:32:02.246Z,8.20
2018-06-21T14:34:31.009Z,8.43
2018-06-21T14:37:00.028Z,7.10
2018-06-21T14:39:28.718Z,6.83
2018-06-21T14:41:57.487Z,6.60
2018-06-21T14:44:26.304Z,7.10
2018-06-21T14:46:55.908Z,6.70
2018-06-21T14:49:24.751Z,6.40
2018-06-21T14:51:53.532Z,7.20
2018-06-21T14:54:22.291Z,7.20
2018-06-21T14:56:51.083Z,6.47
2018-06-21T14:59:19.930Z,6.60
2018-06-21T15:01:48.818Z,7.17
2018-06-21T15:04:17.579Z,6.77
2018-06-21T15:06:46.367Z,7.03
2018-06-21T15:09:15.104Z,7.10
2018-06-21T15:11:43.880Z,8.27
2018-06-21T15:14:12.628Z,7.20
2018-06-21T15:16:41.399Z,7.80
2018-06-21T15:19:10.117Z,7.07
2018-06-21T15:21:38.855Z,7.00
2018-06-21T15:24:08.483Z,7.43
2018-06-21T15:26:37.207Z,7.37
2018-06-21T15:29:05.935Z,6.50
2018-06-21T15:31:34.937Z,7.20
2018-06-21T15:34:03.735Z,7.27
2018-06-21T15:36:32.482Z,9.77
2018-06-21T15:39:02.301Z,8.80
2018-06-21T15:41:31.065Z,8.13
2018-06-21T15:43:59.830Z,10.40
2018-06-21T15:46:29.210Z,9.07
2018-06-21T15:48:58.019Z,9.97
2018-06-21T15:51:26.817Z,9.87
2018-06-21T15:53:55.531Z,9.37
2018-06-21T15:56:24.328Z,8.90
2018-06-21T15:58:53.258Z,10.70
2018-06-21T16:01:22.033Z,13.30
2018-06-21T16:03:50.850Z,9.50
2018-06-21T16:06:19.578Z,8.40
2018-06-21T16:08:48.538Z,9.90
2018-06-21T16:11:17.460Z,8.53
2018-06-21T16:13:46.222Z,7.90
2018-06-21T16:16:14.937Z,7.57
2018-06-21T16:18:43.688Z,7.77
2018-06-21T16:21:19.002Z,7.43
2018-06-21T16:23:47.771Z,9.00
2018-06-21T16:26:16.600Z,9.17
2018-06-21T16:28:45.335Z,8.10
2018-06-21T16:31:14.075Z,8.73
2018-06-21T16:33:42.886Z,9.10
2018-06-21T16:36:11.776Z,8.93
2018-06-21T16:38:41.559Z,8.13
2018-06-21T16:41:10.416Z,8.17
2018-06-21T16:43:39.157Z,8.50
2018-06-21T16:46:08.008Z,7.40
2018-06-21T16:48:36.731Z,7.27
2018-06-21T16:51:05.763Z,7.10
2018-06-21T16:53:34.593Z,6.80
2018-06-21T16:56:03.334Z,7.33
2018-06-21T16:58:32.036Z,7.70
2018-06-21T17:01:00.750Z,8.63
2018-06-21T17:03:29.836Z,10.50
2018-06-21T17:05:58.859Z,10.60
2018-06-21T17:08:27.600Z,10.13
2018-06-21T17:10:56.362Z,11.67
2018-06-21T17:13:25.091Z,11.33
2018-06-21T17:15:53.832Z,12.40
2018-06-21T17:18:23.120Z,11.20
2018-06-21T17:20:52.082Z,11.00
2018-06-21T17:23:20.804Z,11.40
2018-06-21T17:25:49.536Z,10.13
2018-06-21T17:28:18.265Z,10.77
2018-06-21T17:30:47.137Z,10.00
2018-06-21T17:33:15.962Z,9.63
2018-06-21T17:35:44.714Z,9.50
2018-06-21T17:38:13.458Z,10.00
2018-06-21T17:40:42.198Z,10.27
2018-06-21T17:43:13.345Z,11.67
2018-06-21T17:45:42.387Z,10.77
2018-06-21T17:48:11.192Z,9.63
2018-06-21T17:50:40.056Z,9.47
2018-06-21T17:53:08.776Z,9.17
2018-06-21T17:55:37.510Z,9.97
2018-06-21T17:58:06.353Z,11.77
2018-06-21T18:00:35.267Z,15.93
2018-06-21T18:03:04.032Z,10.40
2018-06-21T18:05:32.942Z,11.90
2018-06-21T18:08:01.839Z,11.07
2018-06-21T18:10:30.760Z,11.57
2018-06-21T18:13:06.218Z,11.10
2018-06-21T18:15:34.988Z,11.03
2018-06-21T18:18:03.824Z,11.03
2018-06-21T18:20:32.614Z,11.23
2018-06-21T18:23:01.617Z,12.50
2018-06-21T18:25:30.348Z,12.53
2018-06-21T18:28:00.146Z,11.87
2018-06-21T18:30:28.941Z,13.00
2018-06-21T18:32:57.789Z,12.60
2018-06-21T18:35:26.574Z,12.63
2018-06-21T18:37:55.528Z,11.60
2018-06-21T18:40:24.219Z,13.60
2018-06-21T18:42:53.029Z,13.30
2018-06-21T18:45:21.778Z,13.40
2018-06-21T18:47:50.560Z,15.30
2018-06-21T18:50:19.971Z,18.17
2018-06-21T18:52:48.866Z,25.13
2018-06-21T18:55:17.719Z,24.10
2018-06-21T18:57:47.148Z,21.30
2018-06-21T19:00:17.140Z,18.50
2018-06-21T19:02:46.468Z,16.73
2018-06-21T19:05:16.127Z,15.57
2018-06-21T19:07:44.866Z,15.60
2018-06-21T19:10:18.809Z,17.00
2018-06-21T19:12:47.580Z,18.10
2018-06-21T19:15:16.378Z,15.53
2018-06-21T19:17:45.108Z,14.50
2018-06-21T19:20:13.841Z,14.03
2018-06-21T19:22:42.669Z,15.83
2018-06-21T19:25:11.429Z,15.60
2018-06-21T19:27:40.890Z,14.20
2018-06-21T19:30:09.779Z,13.70
2018-06-21T19:32:41.433Z,14.20
2018-06-21T19:35:10.178Z,15.40
2018-06-21T19:37:38.982Z,15.37
2018-06-21T19:40:07.782Z,14.63
2018-06-21T19:42:36.532Z,14.50
2018-06-21T19:45:06.118Z,13.97
2018-06-21T19:47:34.862Z,14.77
2018-06-21T19:50:03.643Z,13.77
2018-06-21T19:52:32.384Z,14.97
2018-06-21T19:55:01.161Z,16.23
2018-06-21T19:57:30.251Z,19.33
2018-06-21T19:59:58.995Z,17.70
2018-06-21T20:03:03.549Z,18.37
2018-06-21T20:05:32.743Z,16.50
2018-06-21T20:08:01.440Z,14.37
2018-06-21T20:10:30.214Z,15.10
2018-06-21T20:12:58.994Z,14.37
2018-06-21T20:15:27.716Z,14.33
2018-06-21T20:17:56.496Z,13.17
2018-06-21T20:20:35.935Z,13.00
2018-06-21T20:23:05.093Z,13.07
2018-06-21T20:25:35.464Z,12.90
2018-06-21T20:28:04.211Z,12.63
2018-06-21T20:30:33.019Z,12.63
2018-06-21T20:33:01.967Z,14.37
2018-06-21T20:35:31.122Z,13.33
2018-06-21T20:37:59.912Z,12.13
2018-06-21T20:40:28.631Z,12.50
2018-06-21T20:42:57.399Z,12.00
2018-06-21T20:45:26.115Z,11.50
2018-06-21T20:47:54.992Z,12.43
2018-06-21T20:50:23.794Z,12.40
2018-06-21T20:52:52.686Z,13.73
2018-06-21T20:55:21.416Z,13.03
2018-06-21T20:57:50.203Z,12.00
2018-06-21T21:00:19.010Z,11.53
2018-06-21T21:02:47.781Z,13.30
2018-06-21T21:05:17.566Z,13.00
2018-06-21T21:07:48.102Z,12.50
2018-06-21T21:10:23.044Z,12.63
2018-06-21T21:12:51.740Z,12.83
2018-06-21T21:15:20.506Z,12.80
2018-06-21T21:17:49.266Z,12.80
2018-06-21T21:20:17.934Z,12.60
2018-06-21T21:22:46.680Z,12.60
2018-06-21T21:25:15.436Z,12.33
2018-06-21T21:27:44.554Z,13.13
2018-06-21T21:30:13.422Z,13.17
2018-06-21T21:32:42.261Z,12.43
2018-06-21T21:35:11.011Z,12.40
2018-06-21T21:37:39.782Z,12.20
2018-06-21T21:40:08.715Z,12.70
2018-06-21T21:42:39.032Z,12.27
2018-06-21T21:45:07.919Z,12.67
2018-06-21T21:47:36.699Z,11.50
2018-06-21T21:50:05.454Z,12.43
2018-06-21T21:52:34.293Z,12.33
2018-06-21T21:55:02.998Z,12.43
2018-06-21T21:57:31.776Z,11.77
2018-06-21T22:00:00.560Z,11.63
2018-06-21T22:02:29.266Z,12.20
2018-06-21T22:04:57.998Z,11.73
2018-06-21T22:07:26.703Z,12.10
2018-06-21T22:09:55.448Z,12.33
2018-06-21T22:12:24.216Z,11.90
2018-06-21T22:14:53.011Z,11.73
2018-06-21T22:17:21.724Z,12.47
2018-06-21T22:19:50.488Z,12.23
2018-06-21T22:22:19.258Z,12.03
2018-06-21T22:24:48.083Z,11.30
2018-06-21T22:27:16.805Z,11.87
2018-06-21T22:29:45.554Z,11.90
2018-06-21T22:32:14.264Z,11.50
2018-06-21T22:34:43.008Z,12.00
2018-06-21T22:37:11.734Z,12.00
2018-06-21T22:39:40.464Z,11.73
2018-06-21T22:42:09.207Z,11.70
2018-06-21T22:44:37.985Z,12.30
2018-06-21T22:47:06.835Z,12.17
2018-06-21T22:49:35.564Z,11.33
2018-06-21T22:52:04.306Z,11.93
2018-06-21T22:54:33.031Z,11.23
2018-06-21T22:57:01.754Z,13.17
2018-06-21T22:59:30.446Z,11.70
2018-06-21T23:01:59.254Z,11.70
2018-06-21T23:04:27.983Z,12.03
2018-06-21T23:06:56.779Z,12.07
2018-06-21T23:09:28.507Z,11.30
2018-06-21T23:11:57.290Z,11.10
2018-06-21T23:14:26.025Z,11.50
2018-06-21T23:16:57.018Z,11.67
2018-06-21T23:19:28.860Z,11.93
2018-06-21T23:21:57.985Z,12.33
2018-06-21T23:24:27.466Z,10.97
2018-06-21T23:26:56.248Z,10.23
2018-06-21T23:29:24.998Z,10.27
2018-06-21T23:31:53.862Z,11.30
2018-06-21T23:34:23.041Z,10.00
2018-06-21T23:36:52.039Z,10.90
2018-06-21T23:39:20.939Z,10.20
2018-06-21T23:41:49.721Z,11.17
2018-06-21T23:44:18.508Z,10.63
2018-06-21T23:46:47.299Z,10.30
2018-06-21T23:49:16.057Z,10.43
2018-06-21T23:51:44.832Z,10.13
2018-06-21T23:54:14.698Z,10.47
2018-06-21T23:56:44.294Z,12.43
2018-06-21T23:59:13.009Z,12.63
